Manorville, NY

5:33 PM EDT on May 28, 2015 (GMT -0400)
Rolling Hills | | Change Station
CLOSE
Current Station
Personal Weather Station
Location: Ridge, NY
Elevation: 120 ft
Nearby Weather Stations
Active Advisory: Severe Thunderstorm Watch

Elev 120 ft 40.88 °N, 72.92 °W | Updated 8 seconds ago

Partly Cloudy
Partly Cloudy
70.7 °F
Feels Like 70.7 °F
N
0.0
Wind Variable Wind from SSE
Gusts 2.0 mph

Today
High -- | Low -- °F
--% Chance of Precip.
Yesterday
High -- | Low -- °F
Precip. -- in
5:24 AM 8:13 PM
Waxing Gibbous, 78% visible
Pressure 30.14 in
Visibility 10.0 miles
Clouds Clear
Dew Point 66 °F
Humidity 85%
Rainfall 0.00 in
Snow Depth Not available.
UV 4 out of 12
Pollen 9.50 out of 12
Air Quality Not available.
Flu Activity Widespread
METAR KHWV 282056Z AUTO 21012G16KT 10SM CLR 21/17 A3015 RMK AO2 SLP207 T02110167 58008 TSNO

More Conditions Fewer Conditions

Pressure 30.14 in
Visibility 10.0 miles
Clouds Clear
Dew Point 66 °F
Humidity 85%
Rainfall 0.00 in
Snow Depth Not available.
UV 4 out of 12
Pollen 9.50 out of 12
Air Quality Not available.
Flu Activity Widespread
METAR KHWV 282056Z AUTO 21012G16KT 10SM CLR 21/17 A3015 RMK AO2 SLP207 T02110167 58008 TSNO

More Conditions Fewer Conditions

10-Day Weather Forecast

Almanac

Astronomy

May. 28, 2015 Rise Set
Actual Time
Civil Twilight
Nautical Twilight
Astronomical Twilight
Moon
Length of Visible Light
Length of Day
Tomorrow will be .
, % of the Moon is Illuminated

Today's Extremes

State Highs State Lows

Community

WunderPhotos

Upload Photos

1,825,076 photos uploaded!

WunderBlogs® & News

Nearby

Air Quality

  Air Quality AQ Index Pollutant
Not available.

Snow Depth

Station Depth Elevation

Earthquake Activity

City Distance Mag. Time & Date
Minimum magnitude displayed is 2.5.

Coastal Water Temperatures

Place Temperature

Stations

Nearby Weather Stations

Station Location Temp. Windchill Dew Point Humidity Wind Precip. Elev Updated Type
                   
Severe Thunderstorm Watch
Statement as of 5:24 PM EDT on May 28, 2015

Severe Thunderstorm Watch 233 remains in effect until 700 PM EDT

NY
. New York counties included are

Bronx Kings Nassau
New York Orange Putnam
Queens Richmond Rockland
Suffolk Westchester